New Harbor, ME (Heathkit)

43° 52' 34"N, 69° 29' 40"W, Elevation 65 ft.
Eastern Time

Hourly observations for the last 72 hours

Date Time Temperature (°F) Humi-
dity

(%)
Wind
(mph)
Pressure Rain (in)
Air Dew 6 Hour 1 Hr 3 Hr 6 Hr Day
Alt
(in)
Sea
Level

(mb)
Max Min
17 06:00 34 -57 0 SE 5 G 11 29.48 998.3 0.01 0.02
17 05:00 35 -57 0 SE 5 G 14 29.48 998.3 0.01 0.01 0.01
17 04:00 35 -57 0 SE 9 G 21 29.49 998.7 0.00
17 03:00 36 -56 0 ESE 11 G 21 29.49 998.7 0.00
17 02:00 36 -56 38 32 0 ESE 11 G 25 29.48 998.3 0.01 0.04 0.00
17 01:00 36 -56 0 ESE 12 G 23 29.48 998.3 0.00
17 00:00 37 -55 0 E 13 G 26 29.48 998.3 0.01 0.43
16 23:00 37 -55 0 ESE 12 G 25 29.48 998.3 0.03 0.42
16 22:00 37 -55 0 ESE 10 G 23 29.47 998.0 0.02 0.42
16 21:00 36 -56 0 ESE 12 G 23 29.48 998.3 0.01 0.40
16 20:00 36 -56 37 30 0 ESE 11 G 22 29.46 997.7 0.01 0.03 0.14 0.39
16 19:00 36 -56 0 ESE 8 G 22 29.46 997.7 0.01 0.38
16 18:00 35 -57 0 ESE 12 G 23 29.46 997.7 0.01 0.37
16 17:00 36 -56 0 ESE 11 G 28 29.46 997.7 0.02 0.11 0.36
16 16:00 35 -57 0 E 13 G 31 29.44 997.0 0.04 0.34
16 15:00 35 -57 0 ESE 11 G 28 29.42 996.3 0.05 0.30
16 14:00 31 -59 40 30 0 E 13 G 27 29.43 996.6 0.05 0.16 0.25 0.25
16 13:00 35 -57 0 ESE 15 G 33 29.43 996.6 0.06 0.20
16 12:00 36 -56 0 E 14 G 26 29.45 997.3 0.05 0.14
16 11:00 37 -55 0 E 14 G 30 29.46 997.7 0.03 0.09 0.09
16 10:00 38 -55 0 ESE 14 G 36 29.46 997.7 0.03 0.06
16 09:00 39 -54 0 ESE 9 G 28 29.51 999.4 0.03 0.03
16 08:00 40 -54 42 35 0 E 10 G 26 29.55 1000.7 0.00
16 07:00 41 -53 0 ESE 6 G 18 29.59 1002.1 0.00
16 06:00 41 -53 0 ESE 6 G 17 29.59 1002.1 0.00
16 05:00 41 -53 0 E 7 G 14 29.59 1002.1 0.00
16 04:00 41 -53 0 E 7 G 16 29.61 1002.7 0.00
16 03:00 41 -53 0 ESE 7 G 14 29.62 1003.1 0.00
16 02:00 42 -52 42 37 0 ESE 6 G 9 29.62 1003.1 0.00
16 01:00 42 -52 0 E 2 G 6 29.63 1003.4 0.00
16 00:00 42 -52 0 E 4 G 9 29.65 1004.1 0.00
15 23:00 41 -53 0 ESE 3 G 6 29.65 1004.1 0.00
15 22:00 40 -54 0 E 2 G 6 29.67 1004.8 0.00
15 21:00 38 -55 0 E 3 G 5 29.69 1005.5 0.00
15 20:00 42 -52 52 37 0 E 3 G 6 29.69 1005.5 0.00
15 19:00 42 -52 0 ESE 2 G 7 29.69 1005.5 0.00
15 18:00 46 -50 0 E 3 G 6 29.70 1005.8 0.00
15 17:00 49 -48 0 SE 3 G 6 29.70 1005.8 0.00
15 16:00 50 -47 0 SSE 4 G 8 29.70 1005.8 0.00
15 15:00 51 -47 0 SE 4 G 8 29.70 1005.8 0.00
15 14:00 52 -46 54 39 0 E 3 G 7 29.70 1005.8 0.00
15 13:00 51 -47 0 S 6 G 12 29.74 1007.1 0.00
15 12:00 53 -46 0 ESE 3 G 6 29.75 1007.5 0.00
15 11:00 51 -47 0 ESE 3 G 7 29.76 1007.8 0.00
15 10:00 49 -48 0 ESE 3 G 6 29.76 1007.8 0.00
15 09:00 45 -50 0 ESE 3 G 6 29.76 1007.8 0.00
15 08:00 42 -52 42 29 0 SE 2 G 4 29.77 1008.2 0.00
15 07:00 34 -57 0 ESE 2 G 4 29.78 1008.5 0.00
15 06:00 32 -59 0 S 1 G 2 29.78 1008.5 0.00
15 05:00 32 -59 0 SSE 0 G 2 29.77 1008.2 0.00
15 04:00 33 -58 0 S 1 G 2 29.78 1008.5 0.00
15 03:00 33 -58 0 S 1 G 2 29.78 1008.5 0.00
15 02:00 34 -57 42 31 0 S 1 G 2 29.79 1008.8 0.00
15 01:00 36 -56 0 S 1 G 2 29.80 1009.2 0.00
15 00:00 37 -55 0 S 2 G 5 29.80 1009.2 0.00
14 23:00 37 -55 0 SW 3 G 6 29.80 1009.2 0.00
14 22:00 38 -55 0 S 2 G 3 29.80 1009.2 0.00
14 21:00 40 -54 0 SW 1 G 4 29.81 1009.5 0.00
14 20:00 42 -52 52 40 0 SSW 1 G 3 29.80 1009.2 0.00
14 19:00 45 -50 0 S 2 G 6 29.79 1008.8 0.00
14 18:00 47 -49 0 SSW 4 G 7 29.80 1009.2 0.00
14 17:00 50 -47 0 S 5 G 10 29.80 1009.2 0.00
14 16:00 52 -46 0 SSE 3 G 9 29.81 1009.5 0.00
14 15:00 52 -46 0 S 6 G 10 29.84 1010.5 0.00
14 14:00 52 -46 53 38 0 SSE 4 G 10 29.86 1011.2 0.00
14 13:00 52 -46 0 SE 4 G 10 29.87 1011.5 0.00
14 12:00 51 -47 0 SE 5 G 9 29.89 1012.2 0.00
14 11:00 52 -46 0 ESE 4 G 7 29.91 1012.9 0.00
14 10:00 46 -50 0 E 7 G 12 29.92 1013.2 0.00
14 09:00 45 -50 0 SE 5 G 10 29.94 1013.9 0.00
14 08:00 41 -53 41 32 0 SE 7 G 14 29.96 1014.6 0.00
14 07:00 36 -56 0 S 4 G 7 29.96 1014.6 0.00

Data generated by WxSolution Version 1.9.1.8, Build 2020.02.16.